Weather

Partly Cloudy
Saturday 12/15 0%
Partly Cloudy
Partly cloudy. High 53F. Winds light and variable.
Partly Cloudy
Sunday 12/16 0%
Partly Cloudy
Partly cloudy. High 56F. Winds light and variable.
Partly Cloudy
Monday 12/17 0%
Partly Cloudy
Intervals of clouds and sunshine. High 56F. Winds SW at 5 to 10 mph.
Partly Cloudy
Tuesday 12/18 20%
Partly Cloudy
Considerable clouds early. Some decrease in clouds later in the day. High 52F. Winds NW at 10 to 15 mph.
Clear
Wednesday 12/19 0%
Clear
Sunny. High 56F. Winds NNW at 10 to 20 mph.

 

 

For a detailed forecast click the banner below.

ballooncastlogo

 

 

Available data for KABQ from the past 2 hours
ALBUQUERQUE, NM
Metar
KABQ 151352Z 32005KT 10SM FEW170 BKN200 M03/M10 A3031 RMK AO2 SLP282 T10331100

13:52 UTC

Wind: 320° 5kt

Visibility: 10 SM

Sky: FEW 17000 ft

Temp: -3 deg C / 26.6 deg F

Dewpoint: -10 deg C / 14 deg F

Pressure: 30.31 inHg

TAF
KABQ 151120Z 1512/1612 VRB06KT P6SM SCT150 BKN250 FM160100 36006KT P6SM SCT150 BKN250